首页
METAR-TAF:

METAR-TAF

机场 :

洛迦诺, 瑞士

纬度: 46-09-55N, 经度: 8-52-40E, 海拔: 198米

当前天气观测

该预报发布于1小时和41分钟前的11:50 UTC
风速4节,风向西转西南,在南转西南西之间变化
温度 27°C
湿度 51%
气压 1015 hPa
能见度10公里或以上
少量云层高于5000英尺

METAR: LSZL 181150Z 24004KT 200V270 9999 FEW050 27/16 Q1015 RMK BLU+

时间: 15:31 (13:31 UTC)

预报

该预报发布于2小时和6分钟前的11:25 UTC
预报有效从18日的 12点(UTC)到 18日的 21点(UTC)
风速3节,风向西转西南
能见度10公里或以上
少量云层高于6000英尺
几率 40% :
短暂存在
从 18日的 18点(UTC)到 18日的 21点(UTC)
少量云层高于6000英尺, 塔状积云.
阵雨
几率 30% :
短暂存在
从 18日的 18点(UTC)到 18日的 21点(UTC)
能見度: 4500
少量云层高于6000英尺, 积雨云.
雷暴, 小雨

TAF: LSZL 181125Z 1812/1821 24003KT 9999 FEW060 PROB40 TEMPO 1818/1821 SHRA FEW060TCU PROB30 TEMPO 1818/1821 4500 -TSRA FEW060CB

超过4000个机场的气象观测和天气预报(METAR&TAF报告)。

可查询的气象台以黄色和红色小点在地图上表示。

将鼠标移到小点上方,可查看气象台名称。

然后点击查看天气观测和预报。

如需切换地图:点击带黑十字的绿色按钮放大地图;点击带横线的绿色按钮缩小地图;或者点击绿色箭头查看邻近地区的地图。


METAR-TAF: